sensor_id;sensor_type;location;lat;lon;timestamp;P1;durP1;ratioP1;P2;durP2;ratioP2
7707;SDS011;3896;48.758;8.888;2023-08-20T00:00:24;8.20;;;6.37;;
7707;SDS011;3896;48.758;8.888;2023-08-20T00:02:51;8.20;;;6.10;;
7707;SDS011;3896;48.758;8.888;2023-08-20T00:05:30;6.77;;;6.07;;
7707;SDS011;3896;48.758;8.888;2023-08-20T00:07:56;7.30;;;6.30;;
7707;SDS011;3896;48.758;8.888;2023-08-20T00:10:22;7.50;;;5.80;;
7707;SDS011;3896;48.758;8.888;2023-08-20T00:12:47;6.80;;;5.60;;
7707;SDS011;3896;48.758;8.888;2023-08-20T00:15:13;6.80;;;6.10;;
7707;SDS011;3896;48.758;8.888;2023-08-20T00:17:39;6.70;;;6.07;;
7707;SDS011;3896;48.758;8.888;2023-08-20T00:20:06;8.77;;;5.83;;
7707;SDS011;3896;48.758;8.888;2023-08-20T00:22:37;7.63;;;6.07;;
7707;SDS011;3896;48.758;8.888;2023-08-20T00:25:04;6.50;;;5.90;;
7707;SDS011;3896;48.758;8.888;2023-08-20T00:27:30;6.73;;;6.03;;
7707;SDS011;3896;48.758;8.888;2023-08-20T00:29:56;8.00;;;6.10;;
7707;SDS011;3896;48.758;8.888;2023-08-20T00:32:21;7.37;;;6.63;;
7707;SDS011;3896;48.758;8.888;2023-08-20T00:34:47;6.13;;;5.53;;
7707;SDS011;3896;48.758;8.888;2023-08-20T00:37:13;6.90;;;6.30;;
7707;SDS011;3896;48.758;8.888;2023-08-20T00:39:38;7.27;;;6.23;;
7707;SDS011;3896;48.758;8.888;2023-08-20T00:42:04;6.47;;;5.77;;
7707;SDS011;3896;48.758;8.888;2023-08-20T00:44:30;9.23;;;6.53;;
7707;SDS011;3896;48.758;8.888;2023-08-20T00:46:56;6.40;;;5.50;;
7707;SDS011;3896;48.758;8.888;2023-08-20T00:49:23;7.40;;;6.70;;
7707;SDS011;3896;48.758;8.888;2023-08-20T00:51:49;6.70;;;6.10;;
7707;SDS011;3896;48.758;8.888;2023-08-20T00:54:15;6.30;;;5.70;;
7707;SDS011;3896;48.758;8.888;2023-08-20T00:56:41;7.07;;;5.73;;
7707;SDS011;3896;48.758;8.888;2023-08-20T00:59:07;7.87;;;6.30;;
7707;SDS011;3896;48.758;8.888;2023-08-20T01:01:33;7.07;;;6.20;;
7707;SDS011;3896;48.758;8.888;2023-08-20T01:03:59;6.20;;;5.60;;
7707;SDS011;3896;48.758;8.888;2023-08-20T01:09:57;8.37;;;6.33;;
7707;SDS011;3896;48.758;8.888;2023-08-20T01:12:35;6.47;;;5.80;;
7707;SDS011;3896;48.758;8.888;2023-08-20T01:15:01;7.10;;;6.40;;
7707;SDS011;3896;48.758;8.888;2023-08-20T01:17:27;7.47;;;5.90;;
7707;SDS011;3896;48.758;8.888;2023-08-20T01:19:52;7.93;;;6.50;;
7707;SDS011;3896;48.758;8.888;2023-08-20T01:27:52;6.37;;;5.77;;
7707;SDS011;3896;48.758;8.888;2023-08-20T01:30:38;8.80;;;6.83;;
7707;SDS011;3896;48.758;8.888;2023-08-20T01:33:04;7.93;;;6.33;;
7707;SDS011;3896;48.758;8.888;2023-08-20T01:35:31;7.60;;;6.77;;
7707;SDS011;3896;48.758;8.888;2023-08-20T01:37:57;7.63;;;6.67;;
7707;SDS011;3896;48.758;8.888;2023-08-20T01:40:22;9.40;;;6.80;;
7707;SDS011;3896;48.758;8.888;2023-08-20T01:42:48;10.73;;;6.93;;
7707;SDS011;3896;48.758;8.888;2023-08-20T01:45:13;6.80;;;6.07;;
7707;SDS011;3896;48.758;8.888;2023-08-20T01:47:39;8.67;;;6.10;;
7707;SDS011;3896;48.758;8.888;2023-08-20T01:50:04;6.70;;;6.10;;
7707;SDS011;3896;48.758;8.888;2023-08-20T01:52:30;8.87;;;6.70;;
7707;SDS011;3896;48.758;8.888;2023-08-20T01:54:57;6.93;;;6.33;;
7707;SDS011;3896;48.758;8.888;2023-08-20T01:57:23;8.60;;;5.80;;
7707;SDS011;3896;48.758;8.888;2023-08-20T01:59:48;7.17;;;6.43;;
7707;SDS011;3896;48.758;8.888;2023-08-20T02:02:14;7.17;;;6.03;;
7707;SDS011;3896;48.758;8.888;2023-08-20T02:04:39;7.07;;;6.37;;
7707;SDS011;3896;48.758;8.888;2023-08-20T02:07:05;10.23;;;6.57;;
7707;SDS011;3896;48.758;8.888;2023-08-20T02:09:31;7.00;;;6.30;;
7707;SDS011;3896;48.758;8.888;2023-08-20T02:11:56;6.60;;;6.03;;
7707;SDS011;3896;48.758;8.888;2023-08-20T02:14:22;7.30;;;6.53;;
7707;SDS011;3896;48.758;8.888;2023-08-20T02:16:47;9.87;;;7.13;;
7707;SDS011;3896;48.758;8.888;2023-08-20T02:19:13;6.83;;;6.17;;
7707;SDS011;3896;48.758;8.888;2023-08-20T02:21:39;8.77;;;6.27;;
7707;SDS011;3896;48.758;8.888;2023-08-20T02:24:05;7.27;;;5.90;;
7707;SDS011;3896;48.758;8.888;2023-08-20T02:26:31;7.07;;;6.37;;
7707;SDS011;3896;48.758;8.888;2023-08-20T02:28:57;7.33;;;6.63;;
7707;SDS011;3896;48.758;8.888;2023-08-20T02:31:22;7.50;;;6.30;;
7707;SDS011;3896;48.758;8.888;2023-08-20T02:33:48;8.03;;;6.57;;
7707;SDS011;3896;48.758;8.888;2023-08-20T02:36:14;8.00;;;6.77;;
7707;SDS011;3896;48.758;8.888;2023-08-20T02:38:39;7.87;;;7.13;;
7707;SDS011;3896;48.758;8.888;2023-08-20T02:41:05;9.77;;;6.87;;
7707;SDS011;3896;48.758;8.888;2023-08-20T02:43:30;7.10;;;6.40;;
7707;SDS011;3896;48.758;8.888;2023-08-20T02:45:56;9.40;;;7.03;;
7707;SDS011;3896;48.758;8.888;2023-08-20T02:48:22;7.33;;;6.73;;
7707;SDS011;3896;48.758;8.888;2023-08-20T02:50:52;11.60;;;6.73;;
7707;SDS011;3896;48.758;8.888;2023-08-20T02:53:18;7.60;;;6.33;;
7707;SDS011;3896;48.758;8.888;2023-08-20T02:55:44;8.03;;;7.17;;
7707;SDS011;3896;48.758;8.888;2023-08-20T02:58:09;7.60;;;6.50;;
7707;SDS011;3896;48.758;8.888;2023-08-20T03:00:35;6.53;;;5.93;;
7707;SDS011;3896;48.758;8.888;2023-08-20T03:03:01;8.33;;;6.27;;
7707;SDS011;3896;48.758;8.888;2023-08-20T03:05:30;8.67;;;6.70;;
7707;SDS011;3896;48.758;8.888;2023-08-20T03:07:59;8.03;;;6.93;;
7707;SDS011;3896;48.758;8.888;2023-08-20T03:10:25;7.73;;;6.50;;
7707;SDS011;3896;48.758;8.888;2023-08-20T03:12:52;8.83;;;7.17;;
7707;SDS011;3896;48.758;8.888;2023-08-20T03:15:17;7.27;;;6.20;;
7707;SDS011;3896;48.758;8.888;2023-08-20T03:17:43;9.77;;;6.17;;
7707;SDS011;3896;48.758;8.888;2023-08-20T03:20:09;7.37;;;6.57;;
7707;SDS011;3896;48.758;8.888;2023-08-20T03:22:36;6.90;;;6.20;;
7707;SDS011;3896;48.758;8.888;2023-08-20T03:25:02;7.43;;;6.73;;
7707;SDS011;3896;48.758;8.888;2023-08-20T03:27:28;7.20;;;6.50;;
7707;SDS011;3896;48.758;8.888;2023-08-20T03:29:54;9.03;;;6.37;;
7707;SDS011;3896;48.758;8.888;2023-08-20T03:32:19;8.17;;;7.23;;
7707;SDS011;3896;48.758;8.888;2023-08-20T03:34:45;8.00;;;7.20;;
7707;SDS011;3896;48.758;8.888;2023-08-20T03:37:10;9.30;;;7.17;;
7707;SDS011;3896;48.758;8.888;2023-08-20T03:39:36;7.60;;;6.90;;
7707;SDS011;3896;48.758;8.888;2023-08-20T03:42:02;11.50;;;8.10;;
7707;SDS011;3896;48.758;8.888;2023-08-20T03:44:28;7.63;;;6.93;;
7707;SDS011;3896;48.758;8.888;2023-08-20T03:46:54;8.90;;;6.87;;
7707;SDS011;3896;48.758;8.888;2023-08-20T03:49:20;9.20;;;7.10;;
7707;SDS011;3896;48.758;8.888;2023-08-20T03:51:47;8.37;;;7.30;;
7707;SDS011;3896;48.758;8.888;2023-08-20T03:54:12;8.20;;;7.07;;
7707;SDS011;3896;48.758;8.888;2023-08-20T03:56:38;8.87;;;7.80;;
7707;SDS011;3896;48.758;8.888;2023-08-20T03:59:04;8.47;;;7.27;;
7707;SDS011;3896;48.758;8.888;2023-08-20T04:01:30;9.80;;;7.03;;
7707;SDS011;3896;48.758;8.888;2023-08-20T04:03:55;9.07;;;7.73;;
7707;SDS011;3896;48.758;8.888;2023-08-20T04:06:21;8.40;;;7.57;;
7707;SDS011;3896;48.758;8.888;2023-08-20T04:08:46;8.00;;;7.20;;
7707;SDS011;3896;48.758;8.888;2023-08-20T04:11:12;8.30;;;6.93;;
7707;SDS011;3896;48.758;8.888;2023-08-20T04:13:37;8.10;;;7.27;;
7707;SDS011;3896;48.758;8.888;2023-08-20T04:16:04;8.47;;;7.63;;
7707;SDS011;3896;48.758;8.888;2023-08-20T04:18:30;8.47;;;7.43;;
7707;SDS011;3896;48.758;8.888;2023-08-20T04:20:56;9.27;;;7.27;;
7707;SDS011;3896;48.758;8.888;2023-08-20T04:23:22;8.70;;;7.80;;
7707;SDS011;3896;48.758;8.888;2023-08-20T04:25:48;8.17;;;7.37;;
7707;SDS011;3896;48.758;8.888;2023-08-20T04:28:13;7.80;;;7.10;;
7707;SDS011;3896;48.758;8.888;2023-08-20T04:30:39;8.07;;;7.10;;
7707;SDS011;3896;48.758;8.888;2023-08-20T04:33:04;9.03;;;7.50;;
7707;SDS011;3896;48.758;8.888;2023-08-20T04:35:30;10.20;;;7.63;;
7707;SDS011;3896;48.758;8.888;2023-08-20T04:37:56;7.73;;;7.03;;
7707;SDS011;3896;48.758;8.888;2023-08-20T04:40:21;8.37;;;6.90;;
7707;SDS011;3896;48.758;8.888;2023-08-20T04:42:47;7.83;;;7.03;;
7707;SDS011;3896;48.758;8.888;2023-08-20T04:45:13;7.50;;;6.70;;
7707;SDS011;3896;48.758;8.888;2023-08-20T04:47:39;8.17;;;7.33;;
7707;SDS011;3896;48.758;8.888;2023-08-20T04:50:04;7.23;;;6.50;;
7707;SDS011;3896;48.758;8.888;2023-08-20T04:52:33;8.23;;;7.40;;
7707;SDS011;3896;48.758;8.888;2023-08-20T04:54:59;8.47;;;7.13;;
7707;SDS011;3896;48.758;8.888;2023-08-20T04:57:25;10.30;;;7.57;;
7707;SDS011;3896;48.758;8.888;2023-08-20T04:59:51;8.37;;;7.57;;
7707;SDS011;3896;48.758;8.888;2023-08-20T05:02:16;10.20;;;6.97;;
7707;SDS011;3896;48.758;8.888;2023-08-20T05:04:42;8.10;;;7.27;;
7707;SDS011;3896;48.758;8.888;2023-08-20T05:07:07;8.73;;;7.87;;
7707;SDS011;3896;48.758;8.888;2023-08-20T05:09:34;9.20;;;6.83;;
7707;SDS011;3896;48.758;8.888;2023-08-20T05:11:59;10.27;;;8.33;;
7707;SDS011;3896;48.758;8.888;2023-08-20T05:14:25;8.30;;;7.27;;
7707;SDS011;3896;48.758;8.888;2023-08-20T05:16:50;8.20;;;7.37;;
7707;SDS011;3896;48.758;8.888;2023-08-20T05:19:16;10.43;;;8.20;;
7707;SDS011;3896;48.758;8.888;2023-08-20T05:21:41;9.40;;;8.00;;
7707;SDS011;3896;48.758;8.888;2023-08-20T05:24:07;9.10;;;8.20;;
7707;SDS011;3896;48.758;8.888;2023-08-20T05:26:33;11.20;;;9.33;;
7707;SDS011;3896;48.758;8.888;2023-08-20T05:28:59;9.53;;;8.57;;
7707;SDS011;3896;48.758;8.888;2023-08-20T05:31:25;12.23;;;8.93;;
7707;SDS011;3896;48.758;8.888;2023-08-20T05:33:50;11.20;;;9.30;;
7707;SDS011;3896;48.758;8.888;2023-08-20T05:36:16;9.23;;;8.40;;
7707;SDS011;3896;48.758;8.888;2023-08-20T05:38:41;9.63;;;8.63;;
7707;SDS011;3896;48.758;8.888;2023-08-20T05:41:09;10.87;;;9.70;;
7707;SDS011;3896;48.758;8.888;2023-08-20T05:43:35;11.63;;;10.13;;
7707;SDS011;3896;48.758;8.888;2023-08-20T05:46:03;11.17;;;9.00;;
7707;SDS011;3896;48.758;8.888;2023-08-20T05:48:29;14.13;;;10.63;;
7707;SDS011;3896;48.758;8.888;2023-08-20T05:50:55;9.93;;;8.93;;
7707;SDS011;3896;48.758;8.888;2023-08-20T05:53:21;10.87;;;9.70;;
7707;SDS011;3896;48.758;8.888;2023-08-20T05:55:47;10.00;;;9.00;;
7707;SDS011;3896;48.758;8.888;2023-08-20T05:58:13;9.97;;;8.93;;
7707;SDS011;3896;48.758;8.888;2023-08-20T06:00:38;13.70;;;10.03;;
7707;SDS011;3896;48.758;8.888;2023-08-20T06:03:04;11.50;;;9.37;;
7707;SDS011;3896;48.758;8.888;2023-08-20T06:05:30;11.03;;;9.63;;
7707;SDS011;3896;48.758;8.888;2023-08-20T06:07:56;11.93;;;8.90;;
7707;SDS011;3896;48.758;8.888;2023-08-20T06:10:21;10.20;;;9.27;;
7707;SDS011;3896;48.758;8.888;2023-08-20T06:12:47;11.80;;;9.07;;
7707;SDS011;3896;48.758;8.888;2023-08-20T06:15:13;9.70;;;8.77;;
7707;SDS011;3896;48.758;8.888;2023-08-20T06:17:39;10.07;;;9.07;;
7707;SDS011;3896;48.758;8.888;2023-08-20T06:20:06;10.07;;;9.07;;
7707;SDS011;3896;48.758;8.888;2023-08-20T06:22:33;11.30;;;10.10;;
7707;SDS011;3896;48.758;8.888;2023-08-20T06:24:59;12.67;;;10.23;;
7707;SDS011;3896;48.758;8.888;2023-08-20T06:27:24;10.63;;;9.60;;
7707;SDS011;3896;48.758;8.888;2023-08-20T06:29:50;11.27;;;9.77;;
7707;SDS011;3896;48.758;8.888;2023-08-20T06:32:16;10.83;;;9.73;;
7707;SDS011;3896;48.758;8.888;2023-08-20T06:34:41;11.47;;;9.97;;
7707;SDS011;3896;48.758;8.888;2023-08-20T06:37:07;13.23;;;11.43;;
7707;SDS011;3896;48.758;8.888;2023-08-20T06:39:32;10.30;;;9.30;;
7707;SDS011;3896;48.758;8.888;2023-08-20T06:41:58;11.83;;;10.13;;
7707;SDS011;3896;48.758;8.888;2023-08-20T06:44:23;10.10;;;9.10;;
7707;SDS011;3896;48.758;8.888;2023-08-20T06:46:49;10.47;;;9.40;;
7707;SDS011;3896;48.758;8.888;2023-08-20T06:49:15;15.80;;;9.23;;
7707;SDS011;3896;48.758;8.888;2023-08-20T06:51:40;9.87;;;8.37;;
7707;SDS011;3896;48.758;8.888;2023-08-20T06:54:06;10.40;;;8.50;;
7707;SDS011;3896;48.758;8.888;2023-08-20T06:56:32;11.73;;;9.43;;
7707;SDS011;3896;48.758;8.888;2023-08-20T06:58:58;9.93;;;8.83;;
7707;SDS011;3896;48.758;8.888;2023-08-20T07:01:23;10.27;;;9.17;;
7707;SDS011;3896;48.758;8.888;2023-08-20T07:03:49;8.80;;;7.90;;
7707;SDS011;3896;48.758;8.888;2023-08-20T07:06:14;9.10;;;8.20;;
7707;SDS011;3896;48.758;8.888;2023-08-20T07:08:41;9.30;;;8.40;;
7707;SDS011;3896;48.758;8.888;2023-08-20T07:11:07;9.63;;;8.20;;
7707;SDS011;3896;48.758;8.888;2023-08-20T07:13:34;10.40;;;9.07;;
7707;SDS011;3896;48.758;8.888;2023-08-20T07:16:00;10.67;;;9.57;;
7707;SDS011;3896;48.758;8.888;2023-08-20T07:18:26;10.30;;;9.23;;
7707;SDS011;3896;48.758;8.888;2023-08-20T07:20:51;9.27;;;8.40;;
7707;SDS011;3896;48.758;8.888;2023-08-20T07:23:17;9.43;;;8.17;;
7707;SDS011;3896;48.758;8.888;2023-08-20T07:25:43;10.97;;;9.10;;
7707;SDS011;3896;48.758;8.888;2023-08-20T07:28:10;9.57;;;8.33;;
7707;SDS011;3896;48.758;8.888;2023-08-20T07:30:35;12.60;;;9.50;;
7707;SDS011;3896;48.758;8.888;2023-08-20T07:33:02;9.83;;;8.83;;
7707;SDS011;3896;48.758;8.888;2023-08-20T07:35:28;9.80;;;7.50;;
7707;SDS011;3896;48.758;8.888;2023-08-20T07:37:54;8.77;;;7.87;;
7707;SDS011;3896;48.758;8.888;2023-08-20T07:40:20;8.67;;;7.80;;
7707;SDS011;3896;48.758;8.888;2023-08-20T07:42:46;9.13;;;7.60;;
7707;SDS011;3896;48.758;8.888;2023-08-20T07:45:11;9.23;;;8.43;;
7707;SDS011;3896;48.758;8.888;2023-08-20T07:47:37;9.23;;;8.33;;
7707;SDS011;3896;48.758;8.888;2023-08-20T07:50:03;9.33;;;8.43;;
7707;SDS011;3896;48.758;8.888;2023-08-20T07:52:30;10.37;;;6.80;;
7707;SDS011;3896;48.758;8.888;2023-08-20T07:54:56;9.57;;;8.10;;
7707;SDS011;3896;48.758;8.888;2023-08-20T07:57:21;9.37;;;7.83;;
7707;SDS011;3896;48.758;8.888;2023-08-20T07:59:48;11.30;;;8.90;;
7707;SDS011;3896;48.758;8.888;2023-08-20T08:02:14;9.00;;;7.50;;
7707;SDS011;3896;48.758;8.888;2023-08-20T08:04:39;10.10;;;7.53;;
7707;SDS011;3896;48.758;8.888;2023-08-20T08:07:05;10.43;;;7.60;;
7707;SDS011;3896;48.758;8.888;2023-08-20T08:09:32;9.07;;;8.17;;
7707;SDS011;3896;48.758;8.888;2023-08-20T08:11:58;10.30;;;8.40;;
7707;SDS011;3896;48.758;8.888;2023-08-20T08:14:24;8.53;;;7.73;;
7707;SDS011;3896;48.758;8.888;2023-08-20T08:16:50;9.10;;;7.60;;
7707;SDS011;3896;48.758;8.888;2023-08-20T08:19:16;8.40;;;7.50;;
7707;SDS011;3896;48.758;8.888;2023-08-20T08:21:42;8.53;;;6.80;;
7707;SDS011;3896;48.758;8.888;2023-08-20T08:24:09;9.43;;;8.43;;
7707;SDS011;3896;48.758;8.888;2023-08-20T08:26:35;10.70;;;8.07;;
7707;SDS011;3896;48.758;8.888;2023-08-20T08:29:04;10.33;;;7.27;;
7707;SDS011;3896;48.758;8.888;2023-08-20T08:31:31;9.87;;;7.80;;
7707;SDS011;3896;48.758;8.888;2023-08-20T08:33:58;9.03;;;7.03;;
7707;SDS011;3896;48.758;8.888;2023-08-20T08:36:23;10.10;;;8.50;;
7707;SDS011;3896;48.758;8.888;2023-08-20T08:38:52;9.63;;;7.43;;
7707;SDS011;3896;48.758;8.888;2023-08-20T08:41:19;8.60;;;7.60;;
7707;SDS011;3896;48.758;8.888;2023-08-20T08:43:48;9.47;;;6.83;;
7707;SDS011;3896;48.758;8.888;2023-08-20T08:46:14;9.60;;;7.13;;
7707;SDS011;3896;48.758;8.888;2023-08-20T08:48:41;9.33;;;6.97;;
7707;SDS011;3896;48.758;8.888;2023-08-20T08:51:08;8.57;;;6.90;;
7707;SDS011;3896;48.758;8.888;2023-08-20T08:53:34;9.32;;;7.15;;
7707;SDS011;3896;48.758;8.888;2023-08-20T08:56:00;12.30;;;7.00;;
7707;SDS011;3896;48.758;8.888;2023-08-20T08:58:27;7.80;;;6.43;;
7707;SDS011;3896;48.758;8.888;2023-08-20T09:00:53;8.40;;;7.03;;
7707;SDS011;3896;48.758;8.888;2023-08-20T09:03:19;8.87;;;7.10;;
7707;SDS011;3896;48.758;8.888;2023-08-20T09:05:49;9.07;;;7.37;;
7707;SDS011;3896;48.758;8.888;2023-08-20T09:08:29;9.07;;;7.17;;
7707;SDS011;3896;48.758;8.888;2023-08-20T09:10:56;7.75;;;6.85;;
7707;SDS011;3896;48.758;8.888;2023-08-20T09:13:23;7.97;;;7.18;;
7707;SDS011;3896;48.758;8.888;2023-08-20T09:15:53;8.40;;;7.10;;
7707;SDS011;3896;48.758;8.888;2023-08-20T09:18:19;7.30;;;6.15;;
7707;SDS011;3896;48.758;8.888;2023-08-20T09:20:46;7.10;;;6.40;;
7707;SDS011;3896;48.758;8.888;2023-08-20T09:23:14;8.65;;;6.82;;
7707;SDS011;3896;48.758;8.888;2023-08-20T09:25:40;6.05;;;5.45;;
7707;SDS011;3896;48.758;8.888;2023-08-20T09:28:06;6.50;;;5.90;;
7707;SDS011;3896;48.758;8.888;2023-08-20T09:30:32;8.32;;;7.32;;
7707;SDS011;3896;48.758;8.888;2023-08-20T09:33:06;6.82;;;6.18;;
7707;SDS011;3896;48.758;8.888;2023-08-20T09:35:36;7.40;;;6.68;;
7707;SDS011;3896;48.758;8.888;2023-08-20T09:38:05;5.97;;;5.47;;
7707;SDS011;3896;48.758;8.888;2023-08-20T09:40:30;8.60;;;5.60;;
7707;SDS011;3896;48.758;8.888;2023-08-20T09:42:57;6.05;;;5.55;;
7707;SDS011;3896;48.758;8.888;2023-08-20T09:45:24;7.10;;;5.53;;
7707;SDS011;3896;48.758;8.888;2023-08-20T09:47:54;6.63;;;5.68;;
7707;SDS011;3896;48.758;8.888;2023-08-20T09:50:22;6.75;;;5.38;;
7707;SDS011;3896;48.758;8.888;2023-08-20T09:52:52;5.95;;;4.70;;
7707;SDS011;3896;48.758;8.888;2023-08-20T09:55:21;8.95;;;5.03;;
7707;SDS011;3896;48.758;8.888;2023-08-20T09:57:51;5.20;;;4.65;;
7707;SDS011;3896;48.758;8.888;2023-08-20T10:00:17;7.50;;;5.40;;
7707;SDS011;3896;48.758;8.888;2023-08-20T10:02:43;7.30;;;5.65;;
7707;SDS011;3896;48.758;8.888;2023-08-20T10:05:10;7.47;;;5.05;;
7707;SDS011;3896;48.758;8.888;2023-08-20T10:07:36;6.70;;;5.72;;
7707;SDS011;3896;48.758;8.888;2023-08-20T10:10:03;5.47;;;5.03;;
7707;SDS011;3896;48.758;8.888;2023-08-20T10:12:31;6.65;;;4.97;;
7707;SDS011;3896;48.758;8.888;2023-08-20T10:14:58;6.75;;;4.60;;
7707;SDS011;3896;48.758;8.888;2023-08-20T10:17:24;6.70;;;4.35;;
7707;SDS011;3896;48.758;8.888;2023-08-20T10:19:53;5.20;;;4.80;;
7707;SDS011;3896;48.758;8.888;2023-08-20T10:22:22;6.97;;;4.60;;
7707;SDS011;3896;48.758;8.888;2023-08-20T10:24:48;6.25;;;5.00;;
7707;SDS011;3896;48.758;8.888;2023-08-20T10:27:25;6.40;;;4.90;;
7707;SDS011;3896;48.758;8.888;2023-08-20T10:29:55;5.25;;;4.72;;
7707;SDS011;3896;48.758;8.888;2023-08-20T10:32:43;4.43;;;3.92;;
7707;SDS011;3896;48.758;8.888;2023-08-20T10:35:17;6.32;;;4.40;;
7707;SDS011;3896;48.758;8.888;2023-08-20T10:38:00;6.15;;;4.78;;
7707;SDS011;3896;48.758;8.888;2023-08-20T10:43:31;5.20;;;4.70;;
7707;SDS011;3896;48.758;8.888;2023-08-20T10:48:47;5.85;;;4.75;;
7707;SDS011;3896;48.758;8.888;2023-08-20T10:51:19;5.82;;;4.97;;
7707;SDS011;3896;48.758;8.888;2023-08-20T10:56:45;5.65;;;4.45;;
7707;SDS011;3896;48.758;8.888;2023-08-20T11:01:47;5.13;;;4.63;;
7707;SDS011;3896;48.758;8.888;2023-08-20T11:04:17;5.55;;;4.43;;
7707;SDS011;3896;48.758;8.888;2023-08-20T11:06:49;8.80;;;4.38;;
7707;SDS011;3896;48.758;8.888;2023-08-20T11:09:17;6.68;;;4.82;;
7707;SDS011;3896;48.758;8.888;2023-08-20T11:11:43;5.03;;;4.55;;
7707;SDS011;3896;48.758;8.888;2023-08-20T11:14:13;6.88;;;4.25;;
7707;SDS011;3896;48.758;8.888;2023-08-20T11:16:40;7.47;;;4.65;;
7707;SDS011;3896;48.758;8.888;2023-08-20T11:19:09;5.38;;;4.90;;
7707;SDS011;3896;48.758;8.888;2023-08-20T11:21:36;7.97;;;5.00;;
7707;SDS011;3896;48.758;8.888;2023-08-20T11:24:03;5.32;;;4.82;;
7707;SDS011;3896;48.758;8.888;2023-08-20T11:26:29;6.00;;;4.88;;
7707;SDS011;3896;48.758;8.888;2023-08-20T11:28:55;6.30;;;5.05;;
7707;SDS011;3896;48.758;8.888;2023-08-20T11:31:21;5.55;;;4.93;;
7707;SDS011;3896;48.758;8.888;2023-08-20T11:33:47;6.05;;;4.63;;
7707;SDS011;3896;48.758;8.888;2023-08-20T11:36:15;7.43;;;4.60;;
7707;SDS011;3896;48.758;8.888;2023-08-20T11:38:41;5.97;;;5.13;;
7707;SDS011;3896;48.758;8.888;2023-08-20T11:41:07;4.97;;;4.57;;
7707;SDS011;3896;48.758;8.888;2023-08-20T11:43:33;6.78;;;4.80;;
7707;SDS011;3896;48.758;8.888;2023-08-20T11:45:59;5.05;;;4.55;;
7707;SDS011;3896;48.758;8.888;2023-08-20T11:48:25;4.28;;;3.97;;
7707;SDS011;3896;48.758;8.888;2023-08-20T11:50:50;6.22;;;4.70;;
7707;SDS011;3896;48.758;8.888;2023-08-20T11:53:20;5.78;;;4.50;;
7707;SDS011;3896;48.758;8.888;2023-08-20T11:55:47;5.50;;;4.53;;
7707;SDS011;3896;48.758;8.888;2023-08-20T11:58:13;5.05;;;4.65;;
7707;SDS011;3896;48.758;8.888;2023-08-20T12:00:39;5.72;;;4.80;;
7707;SDS011;3896;48.758;8.888;2023-08-20T12:03:05;6.05;;;4.68;;
7707;SDS011;3896;48.758;8.888;2023-08-20T12:05:33;6.88;;;4.65;;
7707;SDS011;3896;48.758;8.888;2023-08-20T12:07:59;4.47;;;4.05;;
7707;SDS011;3896;48.758;8.888;2023-08-20T12:10:26;4.60;;;4.20;;
7707;SDS011;3896;48.758;8.888;2023-08-20T12:12:54;8.30;;;5.53;;
7707;SDS011;3896;48.758;8.888;2023-08-20T12:15:21;9.68;;;5.18;;
7707;SDS011;3896;48.758;8.888;2023-08-20T12:20:21;6.60;;;5.20;;
7707;SDS011;3896;48.758;8.888;2023-08-20T12:22:47;5.85;;;4.60;;
7707;SDS011;3896;48.758;8.888;2023-08-20T12:25:13;5.57;;;4.70;;
7707;SDS011;3896;48.758;8.888;2023-08-20T12:27:39;6.45;;;4.88;;
7707;SDS011;3896;48.758;8.888;2023-08-20T12:30:06;6.70;;;4.60;;
7707;SDS011;3896;48.758;8.888;2023-08-20T12:32:33;5.28;;;4.78;;
7707;SDS011;3896;48.758;8.888;2023-08-20T12:34:59;5.28;;;4.30;;
7707;SDS011;3896;48.758;8.888;2023-08-20T12:37:24;4.78;;;4.35;;
7707;SDS011;3896;48.758;8.888;2023-08-20T12:39:50;5.60;;;4.10;;
7707;SDS011;3896;48.758;8.888;2023-08-20T12:42:15;6.35;;;4.22;;
7707;SDS011;3896;48.758;8.888;2023-08-20T12:44:41;4.30;;;4.00;;
7707;SDS011;3896;48.758;8.888;2023-08-20T12:47:06;5.35;;;3.85;;
7707;SDS011;3896;48.758;8.888;2023-08-20T12:49:32;4.43;;;4.03;;
7707;SDS011;3896;48.758;8.888;2023-08-20T12:51:57;7.40;;;4.40;;
7707;SDS011;3896;48.758;8.888;2023-08-20T12:54:23;4.22;;;3.83;;
7707;SDS011;3896;48.758;8.888;2023-08-20T12:56:48;5.53;;;4.38;;
7707;SDS011;3896;48.758;8.888;2023-08-20T12:59:14;4.50;;;4.05;;
7707;SDS011;3896;48.758;8.888;2023-08-20T13:01:39;4.45;;;3.97;;
7707;SDS011;3896;48.758;8.888;2023-08-20T13:04:05;4.65;;;4.13;;
7707;SDS011;3896;48.758;8.888;2023-08-20T13:06:31;5.32;;;4.82;;
7707;SDS011;3896;48.758;8.888;2023-08-20T13:08:57;4.40;;;4.03;;
7707;SDS011;3896;48.758;8.888;2023-08-20T13:11:23;6.40;;;4.60;;
7707;SDS011;3896;48.758;8.888;2023-08-20T13:13:51;7.55;;;4.45;;
7707;SDS011;3896;48.758;8.888;2023-08-20T13:16:18;4.70;;;4.30;;
7707;SDS011;3896;48.758;8.888;2023-08-20T13:18:44;5.40;;;4.55;;
7707;SDS011;3896;48.758;8.888;2023-08-20T13:21:10;4.88;;;4.22;;
7707;SDS011;3896;48.758;8.888;2023-08-20T13:23:36;4.78;;;4.32;;
7707;SDS011;3896;48.758;8.888;2023-08-20T13:26:02;4.53;;;4.03;;
7707;SDS011;3896;48.758;8.888;2023-08-20T13:28:28;4.90;;;4.40;;
7707;SDS011;3896;48.758;8.888;2023-08-20T13:30:53;5.93;;;3.72;;
7707;SDS011;3896;48.758;8.888;2023-08-20T13:33:19;4.93;;;3.67;;
7707;SDS011;3896;48.758;8.888;2023-08-20T13:35:44;5.03;;;3.65;;
7707;SDS011;3896;48.758;8.888;2023-08-20T13:38:11;4.50;;;3.92;;
7707;SDS011;3896;48.758;8.888;2023-08-20T13:40:36;5.10;;;3.83;;
7707;SDS011;3896;48.758;8.888;2023-08-20T13:43:02;5.43;;;4.93;;
7707;SDS011;3896;48.758;8.888;2023-08-20T13:45:27;4.18;;;3.88;;
7707;SDS011;3896;48.758;8.888;2023-08-20T13:47:53;4.18;;;3.78;;
7707;SDS011;3896;48.758;8.888;2023-08-20T13:50:18;8.43;;;4.47;;
7707;SDS011;3896;48.758;8.888;2023-08-20T13:52:44;4.30;;;3.80;;
7707;SDS011;3896;48.758;8.888;2023-08-20T13:55:10;6.95;;;3.85;;
7707;SDS011;3896;48.758;8.888;2023-08-20T13:57:35;4.40;;;3.97;;
7707;SDS011;3896;48.758;8.888;2023-08-20T14:00:01;5.13;;;3.92;;
7707;SDS011;3896;48.758;8.888;2023-08-20T14:02:32;5.68;;;4.18;;
7707;SDS011;3896;48.758;8.888;2023-08-20T14:04:58;5.45;;;4.15;;
7707;SDS011;3896;48.758;8.888;2023-08-20T14:07:24;4.60;;;4.20;;
7707;SDS011;3896;48.758;8.888;2023-08-20T14:09:49;5.40;;;4.43;;
7707;SDS011;3896;48.758;8.888;2023-08-20T14:12:15;5.15;;;4.00;;
7707;SDS011;3896;48.758;8.888;2023-08-20T14:14:40;4.22;;;3.50;;
7707;SDS011;3896;48.758;8.888;2023-08-20T14:17:06;8.27;;;4.28;;
7707;SDS011;3896;48.758;8.888;2023-08-20T14:19:31;4.43;;;3.90;;
7707;SDS011;3896;48.758;8.888;2023-08-20T14:21:57;4.80;;;4.40;;
7707;SDS011;3896;48.758;8.888;2023-08-20T14:24:22;4.75;;;4.22;;
7707;SDS011;3896;48.758;8.888;2023-08-20T14:26:48;4.57;;;4.18;;
7707;SDS011;3896;48.758;8.888;2023-08-20T14:29:13;4.55;;;4.15;;
7707;SDS011;3896;48.758;8.888;2023-08-20T14:31:39;6.97;;;4.45;;
7707;SDS011;3896;48.758;8.888;2023-08-20T14:34:04;4.03;;;3.70;;
7707;SDS011;3896;48.758;8.888;2023-08-20T14:36:30;5.85;;;4.38;;
7707;SDS011;3896;48.758;8.888;2023-08-20T14:38:56;5.50;;;4.07;;
7707;SDS011;3896;48.758;8.888;2023-08-20T14:41:22;5.63;;;4.55;;
7707;SDS011;3896;48.758;8.888;2023-08-20T14:43:47;4.07;;;3.75;;
7707;SDS011;3896;48.758;8.888;2023-08-20T14:46:15;4.25;;;3.90;;
7707;SDS011;3896;48.758;8.888;2023-08-20T14:48:40;5.38;;;4.45;;
7707;SDS011;3896;48.758;8.888;2023-08-20T14:51:07;4.68;;;4.00;;
7707;SDS011;3896;48.758;8.888;2023-08-20T14:53:33;4.28;;;3.88;;
7707;SDS011;3896;48.758;8.888;2023-08-20T14:55:59;4.93;;;4.13;;
7707;SDS011;3896;48.758;8.888;2023-08-20T14:58:24;4.72;;;3.92;;
7707;SDS011;3896;48.758;8.888;2023-08-20T15:00:50;7.30;;;4.15;;
7707;SDS011;3896;48.758;8.888;2023-08-20T15:03:15;7.15;;;4.10;;
7707;SDS011;3896;48.758;8.888;2023-08-20T15:05:41;4.57;;;3.92;;
7707;SDS011;3896;48.758;8.888;2023-08-20T15:08:07;4.10;;;3.65;;
7707;SDS011;3896;48.758;8.888;2023-08-20T15:10:32;4.95;;;4.18;;
7707;SDS011;3896;48.758;8.888;2023-08-20T15:12:58;4.18;;;3.88;;
7707;SDS011;3896;48.758;8.888;2023-08-20T15:15:24;4.68;;;3.78;;
7707;SDS011;3896;48.758;8.888;2023-08-20T15:17:53;5.10;;;4.45;;
7707;SDS011;3896;48.758;8.888;2023-08-20T15:20:19;5.13;;;3.70;;
7707;SDS011;3896;48.758;8.888;2023-08-20T15:22:45;5.95;;;3.85;;
7707;SDS011;3896;48.758;8.888;2023-08-20T15:25:10;3.65;;;3.35;;
7707;SDS011;3896;48.758;8.888;2023-08-20T15:27:36;4.38;;;3.80;;
7707;SDS011;3896;48.758;8.888;2023-08-20T15:30:03;4.43;;;4.03;;